Airfield :
LOGIN :

Register | Disclaimer

   EN    FR    IT 

 










Legend :    VFR   Marginal VFR   IFR   Intensive IFR   Very Intensive IFR
Visi :
Ceiling :
>= 8 km
>= 3000ft
5 to 8 km
1000 to 3000 ft
1500m to 5 km
500 to 1000 ft
800 to 1500m
200 to 500 ft
< 800m
< 200 ft
Symbols :   Thunderstorms  Fog  Heavy snow  Heavy precipitations  Wind > 20 kt
SIGMETs :     Misc.  Thunderstorms  Icing  Turbulence  Mountain Waves  Volcanic Ashes






- Airport Elevation : 17 ft
- IATA code : MPL


LFMT - Montpellier Méditerranée

CURRENT METAR :
  • 200030Z AUTO 28006KT CAVOK 13/01 Q1016 NOSIG

EXPIRED METARs :
  • 200000Z AUTO 27007KT CAVOK 13/01 Q1016 NOSIG
  • 192330Z AUTO 30004KT CAVOK 11/02 Q1016 NOSIG
  • 192300Z AUTO VRB02KT CAVOK 11/04 Q1016 NOSIG
  • 192230Z AUTO 29004KT CAVOK 10/06 Q1016 NOSIG
  • 192200Z AUTO 26002KT CAVOK 11/06 Q1016 NOSIG
  • 192130Z AUTO VRB01KT CAVOK 11/07 Q1016 NOSIG
  • 192100Z AUTO VRB02KT CAVOK 11/07 Q1016 NOSIG
  • 192030Z AUTO VRB02KT CAVOK 12/08 Q1016 NOSIG
  • 192000Z AUTO 33004KT 300V010 CAVOK 13/08 Q1016 NOSIG

TAF TAF LFMT
Valid from the 19 at 21:00 until the 20 at 21:00 UTC


192000Z 1921/2021 32005KT CAVOK
BECMG 2007/2009 02013KT
TEMPO 2013/2021 02017G28KT
ATIS : +33 4 67 13 11 70



MET'MAP, your aeronautical weather chart ! - Copyright ORBIFLY December 2007 - Disclaimer

ORBIFLY MET'MAP TEAM :

Programming & Development : Alexandra Zaïnal
Original concept : Baudouin d'Aumeries
Technical & hardware support : Manuel Goepfert
Assistance : Marc-Olivier Méhu




SOURCES & CREDITS :

   NOAA